Hlavní strana
METAR-TAF:

METAR-TAF

Letiště :

Mezinárodní letiště Minneapolis-Saint Paul

Minneapolis, Minnesota, Spojené státy americké

zeměpisná šířka: 44-52-59N, zeměpisná délka: 093-13-44W, výška: 256 m

Aktuální stav počasí

Zpráva byla vytvořena před 38 minutami, v 15:53 UTC
Bezvětří
Teplota 14°C
Vlhkost vzduchu 36%
Tlak 1018 hPa
Viditelnost: 16.1 km
Jasno

METAR: KMSP 191553Z 00000KT 10SM CLR 14/M01 A3005 RMK AO2 SLP179 T01391006

Čas: 11:31 (16:31 UTC)

Předpověď počasí

Zpráva byla vytvořena před 1 hodinou a 44 minutami, v 14:47 UTC
Předpověď platná od 19 v 15 UTC do 20 v 18 UTC
Severozápadní vítr 4 kt
Viditelnost: 10 km
Jasno
Od 19 v 2200 UTC
Západní vítr 7 kt
Viditelnost: 10 km
Jasno
Od 20 v 0100 UTC
Jihozápadní vítr 5 kt
Viditelnost: 10 km
Jasno
Od 20 v 1100 UTC
Jižní vítr 8 kt
Viditelnost: 10 km
Jasno

TAF: KMSP 191447Z 1915/2018 32004KT P6SM SKC FM192200 28007KT P6SM SKC FM200100 22005KT P6SM SKC FM201100 17008KT P6SM SKC

Stav a předpovědi počasí z více než 4 000 letišť (zprávy METAR a TAF).

Červené a žluté tečky na mapě představují dostupné meteorologické stanice.

Když kurzor umístíte na tečku, zobrazí se název stanice.

Pak kliknutím zobrazíte stav a předpověď počasí.

Chcete-li změnit mapu, kliknutím na zelené tlačítko se znaménkem +mapu přiblížíte, kliknutím na zelené tlačítko se znaménkem – mapu oddálíte a kliknutím na zelené šipky přejdete na sousední mapy.


METAR-TAF: